Bel'Cy, Republic of Moldova

8:43 AM EEST on October 01, 2014 (GMT +0300)
Iasi | Change Station
CLOSE
Current Station
Airport
Location: Iasi,
Elevation: 338 ft
Nearby Weather Stations

Elev 338 ft 47.16 °N, 27.63 °E | Updated 13 minutes ago

Mostly Cloudy
Mostly Cloudy
57 °F
Feels Like 57 °F
N
5
Wind Variable Wind from West

Today
High -- | Low -- °F
--% Chance of Precip.
Yesterday
High -- | Low -- °F
Precip. -- in
7:06 AM 6:48 PM
Waxing Crescent, 44% visible
Pressure 30.24 in
Visibility 6.2 miles
Clouds Mostly Cloudy 3700 ft
Dew Point 54 °F
Humidity 88%
Rainfall 0.00 in
Snow Depth Not available.
UV 0 out of 12
Pollen Not available.
Air Quality Not available.
Flu Activity Not available.
METAR LRIA 010530Z 26004KT 9999 BKN037 14/12 Q1024

More Conditions Fewer Conditions

Pressure 30.24 in
Visibility 6.2 miles
Clouds Mostly Cloudy 3700 ft
Dew Point 54 °F
Humidity 88%
Rainfall 0.00 in
Snow Depth Not available.
UV 0 out of 12
Pollen Not available.
Air Quality Not available.
Flu Activity Not available.
METAR LRIA 010530Z 26004KT 9999 BKN037 14/12 Q1024

More Conditions Fewer Conditions

10-Day Weather Forecast

Almanac

Astronomy

Oct. 01, 2014 Rise Set
Actual Time 7:06 AM EEST 6:48 PM EEST
Civil Twilight 6:36 AM EEST 7:18 PM EEST
Nautical Twilight 6:00 AM EEST 7:54 PM EEST
Astronomical Twilight 5:23 AM EEST 8:31 PM EEST
Moon 2:10 PM EEST 11:40 PM EEST
Length of Visible Light 12h 42m
Length of Day
11h 41m
Tomorrow will be 3m 25s shorter.
Waxing Crescent, 44% of the Moon is Illuminated
Today
Waxing Crescent
Oct 1
First Quarter
Oct 8
Full
Oct 15
Last Quarter
Oct 23
New

Yesterday's Extremes

Country Highs Country Lows

Community

WunderPhotos

Upload Photos

1,757,875 photos uploaded!

Nearby

Snow Depth

Not available.

Earthquake Activity

City Distance Mag. Time & Date
No recent earthquake activity has been reported nearby.
Minimum magnitude displayed is 2.5.

Coastal Water Temperatures

Place Temperature
No Stations Reporting

Nearby Weather Stations